Airfield :
LOGIN :

Register | Disclaimer

   EN    FR    IT 

 










Legend :    VFR   Marginal VFR   IFR   Intensive IFR   Very Intensive IFR
Visi :
Ceiling :
>= 8 km
>= 3000ft
5 to 8 km
1000 to 3000 ft
1500m to 5 km
500 to 1000 ft
800 to 1500m
200 to 500 ft
< 800m
< 200 ft
Symbols :   Thunderstorms  Fog  Heavy snow  Heavy precipitations  Wind > 20 kt
SIGMETs :     Misc.  Thunderstorms  Icing  Turbulence  Mountain Waves  Volcanic Ashes







- Airport Elevation : 17 ft
- IATA code : GRQ


EHGG - Groningen Eelde

CURRENT METAR :
  • 211455Z AUTO 05005KT 020V100 9999 NSC 28/13 Q1010 BECMG 01010KT

EXPIRED METARs :
  • 211425Z AUTO 06006KT 020V110 9999 NSC 28/13 Q1010 BECMG 01010KT
  • 211355Z AUTO 04005KT 360V100 9999 NSC 28/13 Q1011 BECMG 01010KT
  • 211325Z AUTO 07005KT 010V120 9999 NSC 27/13 Q1011 NOSIG
  • 211255Z AUTO 04005KT 340V080 9999 NSC 27/12 Q1011 NOSIG
  • 211225Z AUTO VRB05KT 9999 NCD 27/13 Q1011 NOSIG

TAF TAF EHGG
Valid from the 21 at 12:00 until the 22 at 18:00 UTC


211105Z 2112/2218 08006KT CAVOK
BECMG 2114/2117 01010KT
BECMG 2119/2122 34006KT
BECMG 2209/2212 31010KT
BECMG 2214/2217 34005KT
No reported NOTAMs for that airfield.



MET'MAP, your aeronautical weather chart ! - Copyright ORBIFLY December 2007 - Disclaimer

ORBIFLY MET'MAP TEAM :

Programming & Development : Alexandra Zaïnal
Concept & Development : Baudouin d'Aumeries
Co-Development & Prog : Marc-Olivier Méhu
Technical & hardware support : Manuel Goepfert

Contact : metmap@orbifly.com




SOURCES & CREDITS :

   NOAA